Time;durP1;ratioP1;P1;durP2;ratioP2;P2;SDS_P1;SDS_P2;PMS_P1;PMS_P2;Temp;Humidity;BMP_temperature;BMP_pressure;BME280_temperature;BME280_humidity;BME280_pressure;Samples;Min_cycle;Max_cycle;Signal;HPM_P1;HPM_P2
2022/10/23 00:28:34;;;;;;;2.20;1.30;;;;;;;;;;5126927;27;20038;-61
2022/10/23 00:31:02;;;;;;;1.87;1.13;;;;;;;;;;5132696;27;20438;-61
2022/10/23 00:33:28;;;;;;;1.10;0.80;;;;;;;;;;5134622;27;20501;-63
2022/10/23 00:35:55;;;;;;;5.50;1.63;;;;;;;;;;5134524;27;20027;-63
2022/10/23 00:38:22;;;;;;;3.07;1.37;;;;;;;;;;5120494;27;20028;-63
2022/10/23 00:40:48;;;;;;;2.63;1.20;;;;;;;;;;5115871;27;20030;-63
2022/10/23 00:43:23;;;;;;;2.87;1.53;;;;;;;;;;5110276;27;20031;-63
2022/10/23 00:45:49;;;;;;;1.25;0.85;;;;;;;;;;5128907;27;20035;-63
2022/10/23 00:48:17;;;;;;;2.37;1.30;;;;;;;;;;5129031;27;20034;-63
2022/10/23 00:50:44;;;;;;;3.37;1.97;;;;;;;;;;5128950;27;20050;-63
2022/10/23 00:53:11;;;;;;;2.37;1.47;;;;;;;;;;5132371;27;20433;-63
2022/10/23 00:55:40;;;;;;;2.93;1.90;;;;;;;;;;5113824;27;20474;-61
2022/10/23 00:58:07;;;;;;;2.50;1.43;;;;;;;;;;5113761;27;20103;-62
2022/10/23 01:00:50;;;;;;;5.43;2.70;;;;;;;;;;5132930;27;20087;-61
2022/10/23 01:03:18;;;;;;;4.63;2.23;;;;;;;;;;5129030;27;20023;-61
2022/10/23 01:05:49;;;;;;;7.13;2.93;;;;;;;;;;5109047;28;20035;-61
2022/10/23 01:08:33;;;;;;;9.17;2.90;;;;;;;;;;5108246;28;20044;-61
2022/10/23 01:11:10;;;;;;;5.30;2.92;;;;;;;;;;5107694;28;20059;-62
2022/10/23 01:13:44;;;;;;;8.17;3.07;;;;;;;;;;5112144;27;20047;-62
2022/10/23 01:16:14;;;;;;;2.03;1.75;;;;;;;;;;5133350;27;20023;-62
2022/10/23 01:18:40;;;;;;;6.93;2.87;;;;;;;;;;5133753;27;20088;-62
2022/10/23 01:21:17;;;;;;;4.27;2.20;;;;;;;;;;5133903;27;20027;-62
2022/10/23 01:23:43;;;;;;;2.60;1.83;;;;;;;;;;5128992;27;20512;-62
2022/10/23 01:26:19;;;;;;;5.73;2.43;;;;;;;;;;5113010;28;20027;-62
2022/10/23 01:29:04;;;;;;;2.53;1.63;;;;;;;;;;5107775;28;20043;-62
2022/10/23 01:31:37;;;;;;;4.00;2.40;;;;;;;;;;5107386;28;20081;-62
2022/10/23 01:34:14;;;;;;;3.50;2.57;;;;;;;;;;5114245;27;20035;-62
2022/10/23 01:36:42;;;;;;;4.63;3.07;;;;;;;;;;5127073;27;20027;-62
2022/10/23 01:39:14;;;;;;;5.20;4.00;;;;;;;;;;5114798;28;20477;-62
2022/10/23 01:41:41;;;;;;;8.03;4.13;;;;;;;;;;5132504;27;20031;-62
2022/10/23 01:44:13;;;;;;;3.03;1.93;;;;;;;;;;5131518;27;20805;-62
2022/10/23 01:46:41;;;;;;;4.80;2.93;;;;;;;;;;5112971;28;20043;-62
2022/10/23 01:49:10;;;;;;;7.27;5.03;;;;;;;;;;5111109;28;20031;-62
2022/10/23 01:51:37;;;;;;;4.77;1.80;;;;;;;;;;5107468;28;20035;-62
2022/10/23 01:54:06;;;;;;;6.23;3.20;;;;;;;;;;5117926;27;20019;-62
2022/10/23 01:56:34;;;;;;;6.00;3.20;;;;;;;;;;5121203;27;20092;-64
2022/10/23 01:59:03;;;;;;;6.43;3.77;;;;;;;;;;5128583;27;20046;-64
2022/10/23 02:01:31;;;;;;;9.77;4.93;;;;;;;;;;5131264;27;20567;-62
2022/10/23 02:04:00;;;;;;;4.07;2.60;;;;;;;;;;5131600;27;20374;-62
2022/10/23 02:06:26;;;;;;;9.83;4.10;;;;;;;;;;5125474;28;20084;-62
2022/10/23 02:08:53;;;;;;;4.33;3.00;;;;;;;;;;5113611;28;20032;-62
2022/10/23 02:11:21;;;;;;;5.20;2.90;;;;;;;;;;5119094;27;20027;-62
2022/10/23 02:14:03;;;;;;;3.90;3.10;;;;;;;;;;5131185;27;20031;-62
2022/10/23 02:16:48;;;;;;;5.03;2.63;;;;;;;;;;5130121;27;20030;-63
2022/10/23 02:19:14;;;;;;;;;;;;;;;;;;5132304;27;20042;-62
2022/10/23 02:21:50;;;;;;;5.03;2.47;;;;;;;;;;5131993;27;20006;-62
2022/10/23 02:24:20;;;;;;;5.93;3.83;;;;;;;;;;5134737;27;20043;-62
2022/10/23 02:26:51;;;;;;;3.87;2.40;;;;;;;;;;5137126;27;20034;-62
2022/10/23 02:29:17;;;;;;;5.30;2.83;;;;;;;;;;5135395;27;20419;-62
2022/10/23 02:31:44;;;;;;;6.37;3.53;;;;;;;;;;5134334;27;20063;-62
2022/10/23 02:34:11;;;;;;;5.33;2.97;;;;;;;;;;5132363;27;20032;-62
2022/10/23 02:36:37;;;;;;;5.33;3.27;;;;;;;;;;5108545;27;20064;-62
2022/10/23 02:39:04;;;;;;;4.33;2.97;;;;;;;;;;5131648;27;20033;-62
2022/10/23 02:41:44;;;;;;;4.70;3.50;;;;;;;;;;5131467;27;20113;-62
2022/10/23 02:44:10;;;;;;;4.97;3.03;;;;;;;;;;5133640;27;20039;-62
2022/10/23 02:46:55;;;;;;;5.30;3.57;;;;;;;;;;5119837;27;20157;-62
2022/10/23 02:49:41;;;;;;;4.65;3.28;;;;;;;;;;5116309;28;20035;-62
2022/10/23 02:52:28;;;;;;;4.37;3.23;;;;;;;;;;5116957;27;20039;-62
2022/10/23 02:54:54;;;;;;;4.10;2.70;;;;;;;;;;5120350;27;20035;-62
2022/10/23 02:57:31;;;;;;;5.73;3.10;;;;;;;;;;5132396;27;20512;-62
2022/10/23 03:00:18;;;;;;;11.63;2.40;;;;;;;;;;5131275;27;20501;-62
2022/10/23 03:03:04;;;;;;;6.17;3.73;;;;;;;;;;5131167;27;20027;-62
2022/10/23 03:05:33;;;;;;;3.10;2.00;;;;;;;;;;5104123;27;20054;-62
2022/10/23 03:08:01;;;;;;;10.37;3.67;;;;;;;;;;5116915;27;20072;-62
2022/10/23 03:10:27;;;;;;;5.57;3.03;;;;;;;;;;5131794;27;20078;-61
2022/10/23 03:12:54;;;;;;;6.50;2.37;;;;;;;;;;5131618;27;20098;-62
2022/10/23 03:15:21;;;;;;;2.73;2.00;;;;;;;;;;5127358;27;20103;-62
2022/10/23 03:17:48;;;;;;;5.03;3.10;;;;;;;;;;5126775;27;20023;-61
2022/10/23 03:20:14;;;;;;;3.07;2.37;;;;;;;;;;5110459;27;20070;-62
2022/10/23 03:22:41;;;;;;;3.97;2.17;;;;;;;;;;5124997;27;20027;-61
2022/10/23 03:25:08;;;;;;;6.47;3.53;;;;;;;;;;5119495;27;20063;-62
2022/10/23 03:27:35;;;;;;;3.53;1.87;;;;;;;;;;5120749;27;20031;-62
2022/10/23 03:30:01;;;;;;;5.47;2.80;;;;;;;;;;5114733;28;20482;-61
2022/10/23 03:32:28;;;;;;;3.30;1.47;;;;;;;;;;5115263;28;20035;-62
2022/10/23 03:34:55;;;;;;;2.87;2.07;;;;;;;;;;5119071;27;20031;-61
2022/10/23 03:37:21;;;;;;;2.47;1.80;;;;;;;;;;5133014;27;20023;-62
2022/10/23 03:39:48;;;;;;;3.93;2.17;;;;;;;;;;5115364;28;20023;-61
2022/10/23 03:42:15;;;;;;;4.80;2.10;;;;;;;;;;5110386;28;20036;-61
2022/10/23 03:44:41;;;;;;;3.33;2.27;;;;;;;;;;5109767;28;20024;-61
2022/10/23 03:47:10;;;;;;;1.77;1.37;;;;;;;;;;5110830;27;20024;-62
2022/10/23 03:49:37;;;;;;;3.77;2.13;;;;;;;;;;5109688;28;20270;-61
2022/10/23 03:52:04;;;;;;;2.53;1.70;;;;;;;;;;5113372;28;20074;-61
2022/10/23 03:54:32;;;;;;;3.87;1.70;;;;;;;;;;5114947;28;20035;-61
2022/10/23 03:56:59;;;;;;;3.10;2.07;;;;;;;;;;5125761;27;20028;-61
2022/10/23 03:59:26;;;;;;;4.40;2.37;;;;;;;;;;5124576;27;20031;-63
2022/10/23 04:01:53;;;;;;;4.10;1.20;;;;;;;;;;5131684;27;20027;-63
2022/10/23 04:04:20;;;;;;;1.33;1.10;;;;;;;;;;5130965;27;20110;-64
2022/10/23 04:06:46;;;;;;;1.57;1.20;;;;;;;;;;5130134;27;20035;-63
2022/10/23 04:09:13;;;;;;;4.70;1.60;;;;;;;;;;5129988;27;20030;-63
2022/10/23 04:11:40;;;;;;;1.83;1.40;;;;;;;;;;5112167;27;20031;-63
2022/10/23 04:14:06;;;;;;;8.47;2.10;;;;;;;;;;5112843;28;20028;-62
2022/10/23 04:16:33;;;;;;;2.20;1.70;;;;;;;;;;5128555;27;20067;-61
2022/10/23 04:19:00;;;;;;;4.77;1.70;;;;;;;;;;5134743;27;20023;-63
2022/10/23 04:21:26;;;;;;;2.33;1.83;;;;;;;;;;5135023;27;20086;-62
2022/10/23 04:23:53;;;;;;;3.67;2.30;;;;;;;;;;5120039;27;20039;-63
2022/10/23 04:26:20;;;;;;;3.40;1.97;;;;;;;;;;5110506;28;20044;-64
2022/10/23 04:28:46;;;;;;;4.67;2.37;;;;;;;;;;5109126;28;20034;-61
2022/10/23 04:31:13;;;;;;;1.80;1.50;;;;;;;;;;5120480;27;20110;-63
2022/10/23 04:33:40;;;;;;;3.80;1.77;;;;;;;;;;5129412;27;20087;-62
2022/10/23 04:36:06;;;;;;;6.97;1.80;;;;;;;;;;5131705;27;20385;-62
2022/10/23 04:38:33;;;;;;;4.40;2.03;;;;;;;;;;5134833;27;20039;-63
2022/10/23 04:41:00;;;;;;;36.87;2.87;;;;;;;;;;5133836;27;20095;-63
2022/10/23 04:43:26;;;;;;;4.53;2.17;;;;;;;;;;5134137;27;20027;-64
2022/10/23 04:45:53;;;;;;;3.13;2.00;;;;;;;;;;5134572;27;20116;-63
2022/10/23 04:48:20;;;;;;;2.67;1.70;;;;;;;;;;5131835;27;20039;-62
2022/10/23 04:50:55;;;;;;;2.53;1.50;;;;;;;;;;5122517;27;20024;-62
2022/10/23 04:53:22;;;;;;;2.20;1.63;;;;;;;;;;5108254;28;20382;-63
2022/10/23 04:55:51;;;;;;;1.20;0.90;;;;;;;;;;5108799;28;20027;-62
2022/10/23 04:58:18;;;;;;;2.03;1.57;;;;;;;;;;5110885;28;20039;-63
2022/10/23 05:00:44;;;;;;;1.53;1.33;;;;;;;;;;5119198;27;20385;-62
2022/10/23 05:03:11;;;;;;;1.40;1.00;;;;;;;;;;5134355;27;20072;-62
2022/10/23 05:05:38;;;;;;;3.93;2.23;;;;;;;;;;5133998;27;20053;-63
2022/10/23 05:08:04;;;;;;;2.47;1.57;;;;;;;;;;5134041;27;20030;-64
2022/10/23 05:10:31;;;;;;;9.60;2.73;;;;;;;;;;5130533;27;20020;-63
2022/10/23 05:12:58;;;;;;;2.80;1.60;;;;;;;;;;5128822;27;20034;-65
2022/10/23 05:15:24;;;;;;;3.13;2.20;;;;;;;;;;5128854;27;20106;-65
2022/10/23 05:17:55;;;;;;;1.30;1.03;;;;;;;;;;5128900;27;20020;-62
2022/10/23 05:20:25;;;;;;;3.03;1.60;;;;;;;;;;5128248;27;20027;-63
2022/10/23 05:22:53;;;;;;;4.97;2.67;;;;;;;;;;5113141;28;20016;-63
2022/10/23 05:25:19;;;;;;;3.67;1.70;;;;;;;;;;5113239;28;20415;-62
2022/10/23 05:27:46;;;;;;;1.73;1.43;;;;;;;;;;5113215;28;20374;-62
2022/10/23 05:30:13;;;;;;;4.87;1.93;;;;;;;;;;5112876;27;20497;-62
2022/10/23 05:32:40;;;;;;;2.37;1.57;;;;;;;;;;5131416;27;20035;-62
2022/10/23 05:35:08;;;;;;;2.83;1.83;;;;;;;;;;5128367;27;20023;-62
2022/10/23 05:37:37;;;;;;;2.07;1.47;;;;;;;;;;5128308;27;20027;-62
2022/10/23 05:40:04;;;;;;;5.67;2.53;;;;;;;;;;5128250;27;20027;-62
2022/10/23 05:42:31;;;;;;;4.13;1.93;;;;;;;;;;5127802;27;20027;-62
2022/10/23 05:44:57;;;;;;;5.00;1.90;;;;;;;;;;5132838;27;20015;-63
2022/10/23 05:47:24;;;;;;;3.13;1.53;;;;;;;;;;5132577;27;20054;-62
2022/10/23 05:49:50;;;;;;;2.00;1.50;;;;;;;;;;5133453;27;20031;-62
2022/10/23 05:52:19;;;;;;;6.17;2.23;;;;;;;;;;5115517;27;20027;-62
2022/10/23 05:54:45;;;;;;;0.93;0.90;;;;;;;;;;5111195;28;20016;-62
2022/10/23 05:57:12;;;;;;;19.43;2.23;;;;;;;;;;5107454;28;20023;-62
2022/10/23 05:59:39;;;;;;;1.87;1.40;;;;;;;;;;5107701;28;20402;-62
2022/10/23 06:02:05;;;;;;;2.70;1.90;;;;;;;;;;5122705;27;20370;-63
2022/10/23 06:04:34;;;;;;;2.67;1.97;;;;;;;;;;5128684;27;20440;-62
2022/10/23 06:07:00;;;;;;;4.00;2.17;;;;;;;;;;5133301;28;20031;-62
2022/10/23 06:09:27;;;;;;;2.17;1.33;;;;;;;;;;5133445;28;20079;-62
2022/10/23 06:11:54;;;;;;;2.23;1.70;;;;;;;;;;5119015;28;20035;-62
2022/10/23 06:14:20;;;;;;;2.23;1.63;;;;;;;;;;5112698;28;20034;-62
2022/10/23 06:16:47;;;;;;;1.80;1.27;;;;;;;;;;5111634;28;20121;-63
2022/10/23 06:19:14;;;;;;;3.13;2.10;;;;;;;;;;5106833;28;20023;-63
2022/10/23 06:21:40;;;;;;;5.03;2.00;;;;;;;;;;5118284;28;20079;-62
2022/10/23 06:24:07;;;;;;;1.73;1.10;;;;;;;;;;5127773;28;20417;-62
2022/10/23 06:26:34;;;;;;;1.70;0.60;;;;;;;;;;5127842;28;20045;-62
2022/10/23 06:29:01;;;;;;;1.37;0.87;;;;;;;;;;5133109;28;20034;-63
2022/10/23 06:31:28;;;;;;;0.67;0.63;;;;;;;;;;5123282;28;20432;-62
2022/10/23 06:33:55;;;;;;;5.33;1.07;;;;;;;;;;5112245;28;20028;-62
2022/10/23 06:36:22;;;;;;;2.77;1.53;;;;;;;;;;5111861;28;20012;-62
2022/10/23 06:38:49;;;;;;;2.00;0.93;;;;;;;;;;5112369;28;20466;-62
2022/10/23 06:41:17;;;;;;;1.93;1.17;;;;;;;;;;5113921;28;20518;-62
2022/10/23 06:43:43;;;;;;;0.97;0.83;;;;;;;;;;5127491;28;20055;-62
2022/10/23 06:46:10;;;;;;;6.50;1.83;;;;;;;;;;5127563;28;20031;-62
2022/10/23 06:48:37;;;;;;;0.70;0.67;;;;;;;;;;5127475;28;20057;-62
2022/10/23 06:51:05;;;;;;;3.07;1.20;;;;;;;;;;5126630;28;20020;-62
2022/10/23 06:53:32;;;;;;;1.73;1.03;;;;;;;;;;5111859;28;20031;-62
2022/10/23 06:55:59;;;;;;;2.93;1.97;;;;;;;;;;5112273;28;20023;-62
2022/10/23 06:58:26;;;;;;;2.97;1.80;;;;;;;;;;5114353;28;20023;-62
2022/10/23 07:00:53;;;;;;;1.50;1.17;;;;;;;;;;5119664;27;20050;-62
2022/10/23 07:03:19;;;;;;;2.00;1.10;;;;;;;;;;5131244;27;20015;-62
2022/10/23 07:05:46;;;;;;;0.93;0.83;;;;;;;;;;5131254;27;20023;-62
2022/10/23 07:08:13;;;;;;;1.30;1.03;;;;;;;;;;5131102;27;20023;-63
2022/10/23 07:10:43;;;;;;;3.63;1.50;;;;;;;;;;5128809;27;20437;-62
2022/10/23 07:13:11;;;;;;;3.07;1.93;;;;;;;;;;5114953;28;20395;-62
2022/10/23 07:15:38;;;;;;;1.33;1.20;;;;;;;;;;5115716;28;20138;-62
2022/10/23 07:18:05;;;;;;;4.20;1.47;;;;;;;;;;5115771;28;20031;-62
2022/10/23 07:20:31;;;;;;;1.70;1.20;;;;;;;;;;5115669;28;20386;-63
2022/10/23 07:22:58;;;;;;;7.70;1.80;;;;;;;;;;5136068;27;20031;-62
2022/10/23 07:25:25;;;;;;;1.70;1.40;;;;;;;;;;5130904;27;20054;-63
2022/10/23 07:27:54;;;;;;;1.53;1.10;;;;;;;;;;5130874;27;20030;-62
2022/10/23 07:30:20;;;;;;;2.30;1.67;;;;;;;;;;5130596;27;20023;-62
2022/10/23 07:32:47;;;;;;;2.13;1.70;;;;;;;;;;5110828;27;20383;-62
2022/10/23 07:35:14;;;;;;;3.23;1.93;;;;;;;;;;5114045;28;20047;-62
2022/10/23 07:37:41;;;;;;;2.30;1.50;;;;;;;;;;5115503;28;20656;-62
2022/10/23 07:40:08;;;;;;;5.97;2.50;;;;;;;;;;5115101;28;20027;-62
2022/10/23 07:42:34;;;;;;;2.07;1.47;;;;;;;;;;5131768;27;20030;-62
2022/10/23 07:45:03;;;;;;;1.43;1.23;;;;;;;;;;5135790;27;20443;-62
2022/10/23 07:47:31;;;;;;;1.70;1.43;;;;;;;;;;5131176;27;20490;-62
2022/10/23 07:49:58;;;;;;;4.57;2.20;;;;;;;;;;5130280;27;20462;-62
2022/10/23 07:52:24;;;;;;;1.60;1.30;;;;;;;;;;5117059;27;20042;-62
2022/10/23 07:54:51;;;;;;;2.77;1.57;;;;;;;;;;5122174;27;20076;-62
2022/10/23 07:57:18;;;;;;;1.77;1.37;;;;;;;;;;5127413;27;20015;-62
2022/10/23 07:59:45;;;;;;;6.07;2.07;;;;;;;;;;5114367;28;20031;-62
2022/10/23 08:02:12;;;;;;;3.30;2.40;;;;;;;;;;5127143;27;20035;-62
2022/10/23 08:04:39;;;;;;;1.20;1.03;;;;;;;;;;5135339;27;20099;-62
2022/10/23 08:07:06;;;;;;;2.80;2.10;;;;;;;;;;5135535;27;20493;-62
2022/10/23 08:09:34;;;;;;;2.60;2.03;;;;;;;;;;5130651;27;20023;-62
2022/10/23 08:12:01;;;;;;;6.03;2.47;;;;;;;;;;5119091;27;20096;-62
2022/10/23 08:14:27;;;;;;;1.03;0.93;;;;;;;;;;5109069;28;20107;-62
2022/10/23 08:16:54;;;;;;;2.70;1.33;;;;;;;;;;5109185;28;20379;-62
2022/10/23 08:19:21;;;;;;;2.03;1.67;;;;;;;;;;5112149;28;20525;-62
2022/10/23 08:21:47;;;;;;;2.90;1.80;;;;;;;;;;5122441;27;20481;-62
2022/10/23 08:24:14;;;;;;;2.93;1.87;;;;;;;;;;5135036;27;20023;-62
2022/10/23 08:26:41;;;;;;;3.13;1.73;;;;;;;;;;5134895;27;20031;-62
2022/10/23 08:29:07;;;;;;;2.27;1.73;;;;;;;;;;5134866;27;20084;-62
2022/10/23 08:31:34;;;;;;;1.67;1.40;;;;;;;;;;5125008;27;20030;-63
2022/10/23 08:34:01;;;;;;;1.57;1.23;;;;;;;;;;5109768;27;20040;-62
2022/10/23 08:36:28;;;;;;;2.30;1.33;;;;;;;;;;5129393;27;20023;-62
2022/10/23 08:38:56;;;;;;;5.00;2.20;;;;;;;;;;5129319;27;20411;-62
2022/10/23 08:41:25;;;;;;;2.57;2.03;;;;;;;;;;5131711;27;20366;-62
2022/10/23 08:43:58;;;;;;;4.13;2.77;;;;;;;;;;5134610;27;20027;-62
2022/10/23 08:46:27;;;;;;;2.73;2.03;;;;;;;;;;5113699;28;20024;-63
2022/10/23 08:48:57;;;;;;;2.27;1.80;;;;;;;;;;5113950;28;20083;-62
2022/10/23 08:51:35;;;;;;;4.10;1.80;;;;;;;;;;5134399;27;20035;-62
2022/10/23 08:54:05;;;;;;;2.63;1.77;;;;;;;;;;5128718;27;20118;-62
2022/10/23 08:56:37;;;;;;;8.50;2.10;;;;;;;;;;5128990;27;20080;-62
2022/10/23 08:59:21;;;;;;;3.50;1.90;;;;;;;;;;5127598;27;20019;-62
2022/10/23 09:01:55;;;;;;;3.87;1.93;;;;;;;;;;5108349;28;20027;-62
2022/10/23 09:04:22;;;;;;;5.30;2.80;;;;;;;;;;5112379;28;20083;-62
2022/10/23 09:06:48;;;;;;;7.33;2.23;;;;;;;;;;5113397;28;20020;-61
2022/10/23 09:09:29;;;;;;;4.17;2.03;;;;;;;;;;5114914;27;20386;-63
2022/10/23 09:11:58;;;;;;;3.67;2.40;;;;;;;;;;5134061;27;20095;-62
2022/10/23 09:14:34;;;;;;;4.20;1.57;;;;;;;;;;5134173;27;20041;-62
2022/10/23 09:17:06;;;;;;;2.23;2.03;;;;;;;;;;5128829;27;20048;-62
2022/10/23 09:19:32;;;;;;;1.40;1.30;;;;;;;;;;5123753;27;20023;-62
2022/10/23 09:21:59;;;;;;;2.47;1.80;;;;;;;;;;5107901;28;20274;-61
2022/10/23 09:24:30;;;;;;;2.60;1.73;;;;;;;;;;5107994;28;20413;-62
2022/10/23 09:26:59;;;;;;;3.73;2.30;;;;;;;;;;5112346;28;20379;-61
2022/10/23 09:29:27;;;;;;;3.20;2.57;;;;;;;;;;5115874;27;20035;-62
2022/10/23 09:31:55;;;;;;;6.07;3.10;;;;;;;;;;5133706;27;20055;-61
2022/10/23 09:34:23;;;;;;;2.50;2.00;;;;;;;;;;5133640;27;20098;-62
2022/10/23 09:36:55;;;;;;;2.50;2.13;;;;;;;;;;5133611;27;20485;-62
2022/10/23 09:39:23;;;;;;;2.67;1.70;;;;;;;;;;5126700;27;20469;-62
2022/10/23 09:41:49;;;;;;;2.70;1.80;;;;;;;;;;5107595;28;20022;-62
2022/10/23 09:44:21;;;;;;;4.57;2.33;;;;;;;;;;5107531;28;20024;-62
2022/10/23 09:46:55;;;;;;;4.37;3.10;;;;;;;;;;5107650;28;20019;-62
2022/10/23 09:49:23;;;;;;;1.83;1.50;;;;;;;;;;5113137;28;20026;-62
2022/10/23 09:52:01;;;;;;;5.17;2.03;;;;;;;;;;5133496;27;20771;-62
2022/10/23 09:54:28;;;;;;;3.07;2.00;;;;;;;;;;5133291;27;20023;-62
2022/10/23 09:56:56;;;;;;;3.23;2.20;;;;;;;;;;5133343;27;20490;-62
2022/10/23 09:59:27;;;;;;;3.07;2.37;;;;;;;;;;5132095;27;20079;-61
2022/10/23 10:01:55;;;;;;;2.20;2.00;;;;;;;;;;5107094;28;20114;-62
2022/10/23 10:04:32;;;;;;;5.43;3.63;;;;;;;;;;5107349;28;20157;-62
2022/10/23 10:07:00;;;;;;;3.20;2.47;;;;;;;;;;5107427;28;20024;-62
2022/10/23 10:09:27;;;;;;;3.90;3.33;;;;;;;;;;5108241;28;20023;-62
2022/10/23 10:11:57;;;;;;;3.00;2.40;;;;;;;;;;5115406;28;20047;-62
2022/10/23 10:14:30;;;;;;;2.57;2.20;;;;;;;;;;5112358;28;20030;-62
2022/10/23 10:17:23;;;;;;;3.40;2.60;;;;;;;;;;5112385;28;20080;-61
2022/10/23 10:19:50;;;;;;;3.50;2.70;;;;;;;;;;5112159;28;20119;-61
2022/10/23 10:22:23;;;;;;;2.83;2.27;;;;;;;;;;5131639;28;20476;-61
2022/10/23 10:24:55;;;;;;;6.70;4.67;;;;;;;;;;5127812;28;20027;-62
2022/10/23 10:27:37;;;;;;;5.77;4.53;;;;;;;;;;5125482;28;20023;-62
2022/10/23 10:30:03;;;;;;;16.20;10.57;;;;;;;;;;5107078;28;20482;-62
2022/10/23 10:32:33;;;;;;;15.63;10.50;;;;;;;;;;5109710;28;20443;-61
2022/10/23 10:35:04;;;;;;;14.27;7.87;;;;;;;;;;5097966;28;20474;-62
2022/10/23 10:37:46;;;;;;;7.40;5.03;;;;;;;;;;5118389;27;20046;-62
2022/10/23 10:40:32;;;;;;;5.33;3.67;;;;;;;;;;5136990;27;20030;-61
2022/10/23 10:43:14;;;;;;;4.07;2.80;;;;;;;;;;5136396;27;20076;-61
2022/10/23 10:45:48;;;;;;;4.50;2.67;;;;;;;;;;5133093;27;20023;-62
2022/10/23 10:48:15;;;;;;;1.63;1.23;;;;;;;;;;5123100;27;20030;-62
2022/10/23 10:50:51;;;;;;;8.67;2.27;;;;;;;;;;5111025;28;20301;-62
2022/10/23 10:53:27;;;;;;;3.40;2.33;;;;;;;;;;5110791;28;20023;-62
2022/10/23 10:55:55;;;;;;;2.13;1.50;;;;;;;;;;5114823;28;20062;-61
2022/10/23 10:58:22;;;;;;;1.83;1.40;;;;;;;;;;5124715;27;20011;-62
2022/10/23 11:00:52;;;;;;;3.57;2.17;;;;;;;;;;5136720;27;20018;-62
2022/10/23 11:03:31;;;;;;;10.50;6.63;;;;;;;;;;5136526;27;20026;-61
2022/10/23 11:05:59;;;;;;;18.73;5.33;;;;;;;;;;5136628;27;20019;-62
2022/10/23 11:08:36;;;;;;;3.87;2.60;;;;;;;;;;5121690;27;20398;-62
2022/10/23 11:11:09;;;;;;;5.17;3.60;;;;;;;;;;5110633;28;20024;-62
2022/10/23 11:13:37;;;;;;;8.70;5.93;;;;;;;;;;5110562;28;20027;-62
2022/10/23 11:16:09;;;;;;;7.93;5.80;;;;;;;;;;5111068;27;20020;-62
2022/10/23 11:18:37;;;;;;;7.40;5.70;;;;;;;;;;5115448;28;20102;-61
2022/10/23 11:21:20;;;;;;;9.20;5.23;;;;;;;;;;5115664;28;20039;-61
2022/10/23 11:23:53;;;;;;;3.90;3.33;;;;;;;;;;5115704;28;20019;-62
2022/10/23 11:26:45;;;;;;;5.37;3.70;;;;;;;;;;5132959;27;20477;-62
2022/10/23 11:29:21;;;;;;;7.63;4.23;;;;;;;;;;5132173;27;20059;-61
2022/10/23 11:31:51;;;;;;;4.70;2.97;;;;;;;;;;5110241;28;20032;-61
2022/10/23 11:34:18;;;;;;;3.40;2.33;;;;;;;;;;5109789;28;20039;-62
2022/10/23 11:36:44;;;;;;;2.47;2.13;;;;;;;;;;5110292;28;20084;-61
2022/10/23 11:39:28;;;;;;;2.97;2.37;;;;;;;;;;5111810;27;20027;-61
2022/10/23 11:41:59;;;;;;;8.00;3.70;;;;;;;;;;5136036;27;20027;-61
2022/10/23 11:44:26;;;;;;;6.43;3.40;;;;;;;;;;5134284;27;20023;-61
2022/10/23 11:47:07;;;;;;;2.67;2.07;;;;;;;;;;5135441;27;20094;-62
2022/10/23 11:49:34;;;;;;;3.00;2.37;;;;;;;;;;5131560;27;20102;-61
2022/10/23 11:52:04;;;;;;;7.53;3.33;;;;;;;;;;5112376;28;20409;-61
2022/10/23 11:54:31;;;;;;;3.53;2.67;;;;;;;;;;5109559;28;20478;-61
2022/10/23 11:57:14;;;;;;;5.10;2.57;;;;;;;;;;5109713;28;20027;-61
2022/10/23 11:59:41;;;;;;;3.70;2.00;;;;;;;;;;5113769;27;20042;-61
2022/10/23 12:02:31;;;;;;;3.20;2.30;;;;;;;;;;5132858;27;20023;-61
2022/10/23 12:05:00;;;;;;;1.50;1.27;;;;;;;;;;5122627;27;20374;-62
2022/10/23 12:07:35;;;;;;;5.10;2.83;;;;;;;;;;5135351;27;20023;-62
2022/10/23 12:10:03;;;;;;;2.67;2.23;;;;;;;;;;5127821;27;20077;-62
2022/10/23 12:12:30;;;;;;;3.03;2.30;;;;;;;;;;5114740;28;20083;-61
2022/10/23 12:15:17;;;;;;;4.73;2.97;;;;;;;;;;5110452;28;20441;-62
2022/10/23 12:17:45;;;;;;;2.27;1.90;;;;;;;;;;5109088;28;20425;-62
2022/10/23 12:20:12;;;;;;;3.07;1.90;;;;;;;;;;5117164;27;20027;-61
2022/10/23 12:22:41;;;;;;;4.53;2.60;;;;;;;;;;5129705;27;20423;-61
2022/10/23 12:25:23;;;;;;;2.60;2.13;;;;;;;;;;5133909;27;20066;-62
2022/10/23 12:27:56;;;;;;;2.93;2.27;;;;;;;;;;5134745;27;20020;-62
2022/10/23 12:30:27;;;;;;;1.90;1.60;;;;;;;;;;5124821;27;20042;-62
2022/10/23 12:33:12;;;;;;;2.13;1.83;;;;;;;;;;5114360;28;20035;-62
2022/10/23 12:35:47;;;;;;;1.58;1.40;;;;;;;;;;5113475;28;20023;-62
2022/10/23 12:38:23;;;;;;;1.57;1.43;;;;;;;;;;5108765;28;20470;-62
2022/10/23 12:41:01;;;;;;;5.23;2.50;;;;;;;;;;5121806;27;20030;-61
2022/10/23 12:43:30;;;;;;;7.57;2.60;;;;;;;;;;5129442;27;20023;-62
2022/10/23 12:45:59;;;;;;;2.30;1.90;;;;;;;;;;5130216;27;20026;-61
2022/10/23 12:48:25;;;;;;;3.13;2.00;;;;;;;;;;5134100;27;20028;-61
2022/10/23 12:50:54;;;;;;;2.67;2.27;;;;;;;;;;5120814;27;20035;-61
2022/10/23 12:53:22;;;;;;;2.80;1.87;;;;;;;;;;5113831;28;20118;-61
2022/10/23 12:55:52;;;;;;;2.50;2.07;;;;;;;;;;5113530;28;20023;-61
2022/10/23 12:58:22;;;;;;;5.83;2.87;;;;;;;;;;5112288;28;20073;-61
2022/10/23 13:00:53;;;;;;;4.43;2.53;;;;;;;;;;5120681;27;20066;-61
2022/10/23 13:03:21;;;;;;;4.20;1.97;;;;;;;;;;5129028;27;20023;-61
2022/10/23 13:05:49;;;;;;;2.20;2.00;;;;;;;;;;5129163;27;20050;-61
2022/10/23 13:08:16;;;;;;;2.43;2.03;;;;;;;;;;5109106;28;20023;-61
2022/10/23 13:10:43;;;;;;;6.77;2.10;;;;;;;;;;5113648;28;20513;-61
2022/10/23 13:13:12;;;;;;;2.50;1.83;;;;;;;;;;5113425;28;20106;-61
2022/10/23 13:15:40;;;;;;;6.20;2.57;;;;;;;;;;5113185;28;20087;-62
2022/10/23 13:18:07;;;;;;;3.23;2.27;;;;;;;;;;5114495;27;20024;-61
2022/10/23 13:20:36;;;;;;;1.90;1.53;;;;;;;;;;5111981;28;20625;-61
2022/10/23 13:23:11;;;;;;;2.63;1.87;;;;;;;;;;5108014;28;20057;-63
2022/10/23 13:25:39;;;;;;;6.18;2.47;;;;;;;;;;5107950;28;20378;-61
2022/10/23 13:28:08;;;;;;;3.57;2.60;;;;;;;;;;5120577;27;20027;-61
2022/10/23 13:30:41;;;;;;;3.33;2.23;;;;;;;;;;5128573;27;20027;-62
2022/10/23 13:33:46;;;;;;;2.47;1.90;;;;;;;;;;5133754;27;20035;-61
2022/10/23 13:36:16;;;;;;;2.47;2.17;;;;;;;;;;5030164;28;20045;-62
2022/10/23 13:38:44;;;;;;;2.60;1.93;;;;;;;;;;5029294;28;20335;-61
2022/10/23 13:41:15;;;;;;;2.37;1.73;;;;;;;;;;5073673;27;20482;-61
2022/10/23 13:43:42;;;;;;;3.20;2.13;;;;;;;;;;5109592;28;20024;-61
2022/10/23 13:46:16;;;;;;;2.93;1.70;;;;;;;;;;5107759;28;20375;-61
2022/10/23 13:48:43;;;;;;;5.05;2.15;;;;;;;;;;5089334;28;20043;-62
2022/10/23 13:51:21;;;;;;;2.20;1.77;;;;;;;;;;5108519;28;20521;-61
2022/10/23 13:53:47;;;;;;;4.07;1.83;;;;;;;;;;5109475;28;20039;-61
2022/10/23 13:56:15;;;;;;;2.93;2.33;;;;;;;;;;5116428;27;20046;-61
2022/10/23 13:58:42;;;;;;;3.73;2.27;;;;;;;;;;5133459;27;20019;-61
2022/10/23 14:01:22;;;;;;;2.20;1.67;;;;;;;;;;5133138;27;20023;-61
2022/10/23 14:03:49;;;;;;;2.17;1.80;;;;;;;;;;5133280;27;20102;-61
2022/10/23 14:06:16;;;;;;;2.20;1.60;;;;;;;;;;5125100;27;20062;-62
2022/10/23 14:08:42;;;;;;;3.13;2.20;;;;;;;;;;5106524;28;20012;-61
2022/10/23 14:11:11;;;;;;;4.30;2.37;;;;;;;;;;5107328;28;20030;-62
2022/10/23 14:13:37;;;;;;;3.50;2.43;;;;;;;;;;5107307;28;20031;-64
2022/10/23 14:16:04;;;;;;;10.60;3.80;;;;;;;;;;5111662;28;20568;-65
2022/10/23 14:18:31;;;;;;;9.23;3.13;;;;;;;;;;5133465;28;20027;-64
2022/10/23 14:21:01;;;;;;;12.87;3.17;;;;;;;;;;5133187;28;20156;-61
2022/10/23 14:23:28;;;;;;;5.40;3.67;;;;;;;;;;5133253;28;20023;-61
2022/10/23 14:26:01;;;;;;;4.93;2.67;;;;;;;;;;5132784;28;20358;-64
2022/10/23 14:28:27;;;;;;;4.30;2.37;;;;;;;;;;5108484;28;20101;-61
2022/10/23 14:30:54;;;;;;;3.27;2.17;;;;;;;;;;5106754;28;20397;-62
2022/10/23 14:33:21;;;;;;;6.43;2.73;;;;;;;;;;5106925;28;20039;-62
2022/10/23 14:35:50;;;;;;;4.00;2.60;;;;;;;;;;5107166;28;20024;-62
2022/10/23 14:38:16;;;;;;;4.70;3.30;;;;;;;;;;5129757;28;20019;-61
2022/10/23 14:40:43;;;;;;;5.00;2.90;;;;;;;;;;5133023;28;20031;-62
2022/10/23 14:43:09;;;;;;;3.97;2.20;;;;;;;;;;5132962;28;20022;-61
2022/10/23 14:45:36;;;;;;;3.17;2.17;;;;;;;;;;5132948;28;20024;-62
2022/10/23 14:48:03;;;;;;;2.90;2.23;;;;;;;;;;5114472;28;20077;-62
2022/10/23 14:50:34;;;;;;;5.73;1.90;;;;;;;;;;5109403;28;20370;-61
2022/10/23 14:53:00;;;;;;;2.20;1.43;;;;;;;;;;5106823;28;20024;-62
2022/10/23 14:55:27;;;;;;;2.13;1.43;;;;;;;;;;5123615;28;20397;-62
2022/10/23 14:57:57;;;;;;;2.40;1.63;;;;;;;;;;5126868;28;20023;-63
2022/10/23 15:00:24;;;;;;;1.70;1.23;;;;;;;;;;5130414;28;20043;-63
2022/10/23 15:02:50;;;;;;;2.70;1.87;;;;;;;;;;5132451;28;20011;-63
2022/10/23 15:05:18;;;;;;;2.50;1.60;;;;;;;;;;5132794;28;20023;-64
2022/10/23 15:07:44;;;;;;;2.97;1.85;;;;;;;;;;5131691;28;20023;-62
2022/10/23 15:10:11;;;;;;;2.85;1.60;;;;;;;;;;5132896;28;20026;-62
2022/10/23 15:12:38;;;;;;;4.25;1.83;;;;;;;;;;5129660;28;20053;-63
2022/10/23 15:15:06;;;;;;;3.47;2.13;;;;;;;;;;5127430;28;20370;-62
2022/10/23 15:17:34;;;;;;;2.70;1.95;;;;;;;;;;5126842;28;20042;-62
2022/10/23 15:20:01;;;;;;;3.97;1.50;;;;;;;;;;5130232;27;20109;-62
2022/10/23 15:22:27;;;;;;;2.70;1.92;;;;;;;;;;5133376;27;20466;-63
2022/10/23 15:24:55;;;;;;;4.20;2.65;;;;;;;;;;5136058;27;20477;-62